East Bangor, Pennsylvania
Current Conditions -  °F | °C
As of 10:51 AM on Wednesday 26 Nov 2014 (Local Time) from KABE Reporting Station
Moderate Snow Moderate Snow  
Wind Chill:   Ceiling: 300
Heat Index:   Visibility: 0.5mi
Dew Point: -1°   Wind: 3mph
Humidity: 92%   Direction: 60°ENE
Pressure: 30.09"   Gusts: NA
Location:  40.8463°N, 75.1731°W
Report Text: KABE 261551Z 06003KT 1/2SM SN FG OVC003 01/M01 A3009 RMK AO2 SLP194 P0018 T00061006
Loading
Personal Weather Stations






























Interactive Weather Map New forecast layout! Learn more

10-Day Weather Forecast

Advertisements
Track Severe Weather on mobile